sensor_id;sensor_type;location;lat;lon;timestamp;P1;durP1;ratioP1;P2;durP2;ratioP2
19782;SDS011;10051;40.294;-3.754;2022-11-22T00:02:20;3.28;;;0.85;;
19782;SDS011;10051;40.294;-3.754;2022-11-22T00:04:46;6.32;;;0.90;;
19782;SDS011;10051;40.294;-3.754;2022-11-22T00:07:11;5.72;;;1.05;;
19782;SDS011;10051;40.294;-3.754;2022-11-22T00:09:37;5.93;;;1.20;;
19782;SDS011;10051;40.294;-3.754;2022-11-22T00:12:02;4.43;;;0.82;;
19782;SDS011;10051;40.294;-3.754;2022-11-22T00:14:28;2.55;;;0.73;;
19782;SDS011;10051;40.294;-3.754;2022-11-22T00:16:53;3.33;;;0.82;;
19782;SDS011;10051;40.294;-3.754;2022-11-22T00:19:19;6.30;;;1.20;;
19782;SDS011;10051;40.294;-3.754;2022-11-22T00:21:44;10.18;;;0.88;;
19782;SDS011;10051;40.294;-3.754;2022-11-22T00:24:13;4.47;;;1.30;;
19782;SDS011;10051;40.294;-3.754;2022-11-22T00:26:39;7.47;;;1.02;;
19782;SDS011;10051;40.294;-3.754;2022-11-22T00:29:04;6.28;;;0.98;;
19782;SDS011;10051;40.294;-3.754;2022-11-22T00:31:30;5.13;;;0.80;;
19782;SDS011;10051;40.294;-3.754;2022-11-22T00:33:56;7.35;;;1.00;;
19782;SDS011;10051;40.294;-3.754;2022-11-22T00:36:22;3.00;;;1.00;;
19782;SDS011;10051;40.294;-3.754;2022-11-22T00:38:48;3.10;;;0.90;;
19782;SDS011;10051;40.294;-3.754;2022-11-22T00:41:14;5.03;;;0.70;;
19782;SDS011;10051;40.294;-3.754;2022-11-22T00:43:39;5.03;;;1.00;;
19782;SDS011;10051;40.294;-3.754;2022-11-22T00:46:05;6.95;;;1.10;;
19782;SDS011;10051;40.294;-3.754;2022-11-22T00:48:31;5.40;;;1.00;;
19782;SDS011;10051;40.294;-3.754;2022-11-22T00:50:56;4.95;;;0.93;;
19782;SDS011;10051;40.294;-3.754;2022-11-22T00:53:22;12.43;;;1.00;;
19782;SDS011;10051;40.294;-3.754;2022-11-22T00:55:48;4.40;;;0.90;;
19782;SDS011;10051;40.294;-3.754;2022-11-22T00:58:13;4.40;;;0.85;;
19782;SDS011;10051;40.294;-3.754;2022-11-22T01:00:39;7.88;;;1.00;;
19782;SDS011;10051;40.294;-3.754;2022-11-22T01:03:05;7.53;;;0.95;;
19782;SDS011;10051;40.294;-3.754;2022-11-22T01:05:31;3.80;;;1.00;;
19782;SDS011;10051;40.294;-3.754;2022-11-22T01:07:56;7.65;;;1.02;;
19782;SDS011;10051;40.294;-3.754;2022-11-22T01:10:22;6.53;;;0.98;;
19782;SDS011;10051;40.294;-3.754;2022-11-22T01:12:47;5.82;;;0.90;;
19782;SDS011;10051;40.294;-3.754;2022-11-22T01:15:13;4.70;;;1.00;;
19782;SDS011;10051;40.294;-3.754;2022-11-22T01:17:39;4.93;;;0.93;;
19782;SDS011;10051;40.294;-3.754;2022-11-22T01:20:05;4.85;;;1.00;;
19782;SDS011;10051;40.294;-3.754;2022-11-22T01:22:31;5.55;;;1.00;;
19782;SDS011;10051;40.294;-3.754;2022-11-22T01:24:57;4.30;;;0.95;;
19782;SDS011;10051;40.294;-3.754;2022-11-22T01:27:22;4.97;;;0.75;;
19782;SDS011;10051;40.294;-3.754;2022-11-22T01:29:48;4.43;;;1.02;;
19782;SDS011;10051;40.294;-3.754;2022-11-22T01:32:14;5.10;;;0.90;;
19782;SDS011;10051;40.294;-3.754;2022-11-22T01:34:39;5.40;;;1.10;;
19782;SDS011;10051;40.294;-3.754;2022-11-22T01:37:05;3.00;;;0.70;;
19782;SDS011;10051;40.294;-3.754;2022-11-22T01:39:31;4.07;;;0.80;;
19782;SDS011;10051;40.294;-3.754;2022-11-22T01:41:56;2.40;;;0.70;;
19782;SDS011;10051;40.294;-3.754;2022-11-22T01:44:26;4.38;;;0.70;;
19782;SDS011;10051;40.294;-3.754;2022-11-22T01:46:55;2.88;;;0.70;;
19782;SDS011;10051;40.294;-3.754;2022-11-22T01:52:24;3.90;;;0.82;;
19782;SDS011;10051;40.294;-3.754;2022-11-22T01:54:56;5.25;;;0.85;;
19782;SDS011;10051;40.294;-3.754;2022-11-22T01:57:26;2.35;;;1.00;;
19782;SDS011;10051;40.294;-3.754;2022-11-22T01:59:57;4.60;;;0.88;;
19782;SDS011;10051;40.294;-3.754;2022-11-22T02:02:26;3.05;;;0.80;;
19782;SDS011;10051;40.294;-3.754;2022-11-22T02:04:52;1.92;;;0.50;;
19782;SDS011;10051;40.294;-3.754;2022-11-22T02:09:47;2.83;;;0.60;;
19782;SDS011;10051;40.294;-3.754;2022-11-22T02:12:15;2.75;;;0.60;;
19782;SDS011;10051;40.294;-3.754;2022-11-22T02:14:43;2.95;;;0.70;;
19782;SDS011;10051;40.294;-3.754;2022-11-22T02:17:09;2.83;;;0.70;;
19782;SDS011;10051;40.294;-3.754;2022-11-22T02:22:04;2.92;;;0.65;;
19782;SDS011;10051;40.294;-3.754;2022-11-22T02:24:49;3.78;;;1.10;;
19782;SDS011;10051;40.294;-3.754;2022-11-22T02:27:19;4.72;;;1.20;;
19782;SDS011;10051;40.294;-3.754;2022-11-22T02:29:45;5.85;;;1.20;;
19782;SDS011;10051;40.294;-3.754;2022-11-22T02:32:10;5.03;;;1.00;;
19782;SDS011;10051;40.294;-3.754;2022-11-22T02:34:46;4.25;;;1.17;;
19782;SDS011;10051;40.294;-3.754;2022-11-22T02:37:13;3.65;;;0.90;;
19782;SDS011;10051;40.294;-3.754;2022-11-22T02:39:43;5.47;;;0.90;;
19782;SDS011;10051;40.294;-3.754;2022-11-22T02:42:11;2.30;;;0.80;;
19782;SDS011;10051;40.294;-3.754;2022-11-22T02:44:37;4.00;;;0.80;;
19782;SDS011;10051;40.294;-3.754;2022-11-22T02:47:04;3.67;;;0.93;;
19782;SDS011;10051;40.294;-3.754;2022-11-22T02:49:30;3.50;;;0.75;;
19782;SDS011;10051;40.294;-3.754;2022-11-22T02:51:55;5.60;;;1.00;;
19782;SDS011;10051;40.294;-3.754;2022-11-22T02:54:21;2.88;;;0.82;;
19782;SDS011;10051;40.294;-3.754;2022-11-22T02:56:46;5.72;;;1.02;;
19782;SDS011;10051;40.294;-3.754;2022-11-22T02:59:12;6.78;;;0.80;;
19782;SDS011;10051;40.294;-3.754;2022-11-22T03:01:37;3.67;;;1.00;;
19782;SDS011;10051;40.294;-3.754;2022-11-22T03:04:03;4.03;;;0.80;;
19782;SDS011;10051;40.294;-3.754;2022-11-22T03:06:29;3.78;;;0.93;;
19782;SDS011;10051;40.294;-3.754;2022-11-22T03:08:55;1.67;;;0.68;;
19782;SDS011;10051;40.294;-3.754;2022-11-22T03:11:20;2.95;;;0.70;;
19782;SDS011;10051;40.294;-3.754;2022-11-22T03:13:45;4.35;;;0.82;;
19782;SDS011;10051;40.294;-3.754;2022-11-22T03:16:11;2.42;;;0.80;;
19782;SDS011;10051;40.294;-3.754;2022-11-22T03:18:37;4.10;;;0.73;;
19782;SDS011;10051;40.294;-3.754;2022-11-22T03:21:02;4.53;;;1.08;;
19782;SDS011;10051;40.294;-3.754;2022-11-22T03:23:32;4.13;;;0.82;;
19782;SDS011;10051;40.294;-3.754;2022-11-22T03:25:58;2.17;;;0.68;;
19782;SDS011;10051;40.294;-3.754;2022-11-22T03:28:24;5.55;;;0.90;;
19782;SDS011;10051;40.294;-3.754;2022-11-22T03:30:50;4.10;;;0.98;;
19782;SDS011;10051;40.294;-3.754;2022-11-22T03:33:16;4.07;;;1.08;;
19782;SDS011;10051;40.294;-3.754;2022-11-22T03:35:41;2.55;;;0.70;;
19782;SDS011;10051;40.294;-3.754;2022-11-22T03:38:07;4.75;;;0.95;;
19782;SDS011;10051;40.294;-3.754;2022-11-22T03:40:33;3.22;;;0.80;;
19782;SDS011;10051;40.294;-3.754;2022-11-22T03:42:59;4.90;;;0.90;;
19782;SDS011;10051;40.294;-3.754;2022-11-22T03:45:28;3.15;;;0.88;;
19782;SDS011;10051;40.294;-3.754;2022-11-22T03:47:55;5.05;;;1.08;;
19782;SDS011;10051;40.294;-3.754;2022-11-22T03:50:21;4.55;;;0.90;;
19782;SDS011;10051;40.294;-3.754;2022-11-22T03:52:47;4.60;;;1.60;;
19782;SDS011;10051;40.294;-3.754;2022-11-22T03:55:13;4.68;;;0.80;;
19782;SDS011;10051;40.294;-3.754;2022-11-22T03:57:39;5.82;;;1.00;;
19782;SDS011;10051;40.294;-3.754;2022-11-22T04:00:05;3.75;;;0.95;;
19782;SDS011;10051;40.294;-3.754;2022-11-22T04:02:31;2.67;;;0.70;;
19782;SDS011;10051;40.294;-3.754;2022-11-22T04:04:56;2.15;;;0.70;;
19782;SDS011;10051;40.294;-3.754;2022-11-22T04:07:22;5.28;;;0.80;;
19782;SDS011;10051;40.294;-3.754;2022-11-22T04:09:48;2.97;;;0.80;;
19782;SDS011;10051;40.294;-3.754;2022-11-22T04:12:13;2.63;;;0.70;;
19782;SDS011;10051;40.294;-3.754;2022-11-22T04:14:39;2.08;;;0.70;;
19782;SDS011;10051;40.294;-3.754;2022-11-22T04:17:23;2.50;;;0.60;;
19782;SDS011;10051;40.294;-3.754;2022-11-22T04:20:08;2.22;;;0.70;;
19782;SDS011;10051;40.294;-3.754;2022-11-22T04:22:59;3.60;;;0.80;;
19782;SDS011;10051;40.294;-3.754;2022-11-22T04:25:31;2.30;;;0.63;;
19782;SDS011;10051;40.294;-3.754;2022-11-22T04:28:00;2.75;;;0.60;;
19782;SDS011;10051;40.294;-3.754;2022-11-22T04:30:26;2.55;;;0.50;;
19782;SDS011;10051;40.294;-3.754;2022-11-22T04:33:11;2.25;;;0.60;;
19782;SDS011;10051;40.294;-3.754;2022-11-22T04:35:41;3.40;;;0.60;;
19782;SDS011;10051;40.294;-3.754;2022-11-22T04:38:08;1.77;;;0.77;;
19782;SDS011;10051;40.294;-3.754;2022-11-22T04:40:35;5.70;;;0.68;;
19782;SDS011;10051;40.294;-3.754;2022-11-22T04:43:01;1.30;;;0.45;;
19782;SDS011;10051;40.294;-3.754;2022-11-22T04:45:45;2.55;;;0.70;;
19782;SDS011;10051;40.294;-3.754;2022-11-22T04:48:11;1.55;;;0.60;;
19782;SDS011;10051;40.294;-3.754;2022-11-22T04:50:37;1.98;;;0.70;;
19782;SDS011;10051;40.294;-3.754;2022-11-22T04:53:22;2.63;;;0.60;;
19782;SDS011;10051;40.294;-3.754;2022-11-22T04:55:49;2.17;;;0.70;;
19782;SDS011;10051;40.294;-3.754;2022-11-22T04:58:15;4.70;;;0.77;;
19782;SDS011;10051;40.294;-3.754;2022-11-22T05:00:41;2.95;;;0.60;;
19782;SDS011;10051;40.294;-3.754;2022-11-22T05:03:07;3.17;;;0.60;;
19782;SDS011;10051;40.294;-3.754;2022-11-22T05:05:34;5.47;;;0.80;;
19782;SDS011;10051;40.294;-3.754;2022-11-22T05:08:05;3.28;;;0.50;;
19782;SDS011;10051;40.294;-3.754;2022-11-22T05:10:31;4.32;;;0.70;;
19782;SDS011;10051;40.294;-3.754;2022-11-22T05:13:18;2.85;;;0.80;;
19782;SDS011;10051;40.294;-3.754;2022-11-22T05:15:45;3.50;;;0.68;;
19782;SDS011;10051;40.294;-3.754;2022-11-22T05:18:11;2.58;;;0.60;;
19782;SDS011;10051;40.294;-3.754;2022-11-22T05:20:37;4.22;;;0.70;;
19782;SDS011;10051;40.294;-3.754;2022-11-22T05:23:03;4.28;;;0.60;;
19782;SDS011;10051;40.294;-3.754;2022-11-22T05:25:47;2.80;;;0.63;;
19782;SDS011;10051;40.294;-3.754;2022-11-22T05:28:12;2.20;;;0.60;;
19782;SDS011;10051;40.294;-3.754;2022-11-22T05:30:38;2.53;;;0.50;;
19782;SDS011;10051;40.294;-3.754;2022-11-22T05:33:04;2.42;;;0.80;;
19782;SDS011;10051;40.294;-3.754;2022-11-22T05:35:30;4.38;;;0.70;;
19782;SDS011;10051;40.294;-3.754;2022-11-22T05:37:56;2.63;;;0.60;;
19782;SDS011;10051;40.294;-3.754;2022-11-22T05:40:22;4.30;;;0.70;;
19782;SDS011;10051;40.294;-3.754;2022-11-22T05:42:48;5.00;;;0.70;;
19782;SDS011;10051;40.294;-3.754;2022-11-22T05:45:13;6.78;;;0.85;;
19782;SDS011;10051;40.294;-3.754;2022-11-22T05:47:39;3.03;;;0.70;;
19782;SDS011;10051;40.294;-3.754;2022-11-22T05:50:05;3.38;;;0.70;;
19782;SDS011;10051;40.294;-3.754;2022-11-22T05:52:30;5.53;;;0.80;;
19782;SDS011;10051;40.294;-3.754;2022-11-22T05:54:56;4.13;;;0.65;;
19782;SDS011;10051;40.294;-3.754;2022-11-22T05:57:22;2.55;;;0.60;;
19782;SDS011;10051;40.294;-3.754;2022-11-22T05:59:47;5.35;;;0.80;;
19782;SDS011;10051;40.294;-3.754;2022-11-22T06:02:13;4.22;;;0.85;;
19782;SDS011;10051;40.294;-3.754;2022-11-22T06:04:38;1.73;;;0.70;;
19782;SDS011;10051;40.294;-3.754;2022-11-22T06:07:04;2.83;;;0.70;;
19782;SDS011;10051;40.294;-3.754;2022-11-22T06:09:29;3.22;;;0.77;;
19782;SDS011;10051;40.294;-3.754;2022-11-22T06:11:55;2.95;;;0.80;;
19782;SDS011;10051;40.294;-3.754;2022-11-22T06:14:20;3.03;;;1.00;;
19782;SDS011;10051;40.294;-3.754;2022-11-22T06:16:46;5.22;;;0.90;;
19782;SDS011;10051;40.294;-3.754;2022-11-22T06:19:11;6.65;;;1.20;;
19782;SDS011;10051;40.294;-3.754;2022-11-22T06:21:37;3.45;;;1.10;;
19782;SDS011;10051;40.294;-3.754;2022-11-22T06:24:02;2.80;;;1.00;;
19782;SDS011;10051;40.294;-3.754;2022-11-22T06:26:28;7.55;;;1.20;;
19782;SDS011;10051;40.294;-3.754;2022-11-22T06:28:54;2.85;;;1.13;;
19782;SDS011;10051;40.294;-3.754;2022-11-22T06:31:23;4.05;;;1.10;;
19782;SDS011;10051;40.294;-3.754;2022-11-22T06:33:50;3.97;;;1.00;;
19782;SDS011;10051;40.294;-3.754;2022-11-22T06:36:18;4.90;;;1.50;;
19782;SDS011;10051;40.294;-3.754;2022-11-22T06:38:46;4.93;;;1.40;;
19782;SDS011;10051;40.294;-3.754;2022-11-22T06:41:15;4.60;;;1.00;;
19782;SDS011;10051;40.294;-3.754;2022-11-22T06:43:43;4.18;;;0.80;;
19782;SDS011;10051;40.294;-3.754;2022-11-22T06:46:10;4.75;;;1.00;;
19782;SDS011;10051;40.294;-3.754;2022-11-22T06:48:38;4.15;;;0.90;;
19782;SDS011;10051;40.294;-3.754;2022-11-22T06:53:37;5.65;;;1.05;;
19782;SDS011;10051;40.294;-3.754;2022-11-22T06:56:10;5.20;;;1.10;;
19782;SDS011;10051;40.294;-3.754;2022-11-22T06:58:37;4.25;;;1.10;;
19782;SDS011;10051;40.294;-3.754;2022-11-22T07:01:04;8.32;;;1.20;;
19782;SDS011;10051;40.294;-3.754;2022-11-22T07:03:35;6.20;;;1.70;;
19782;SDS011;10051;40.294;-3.754;2022-11-22T07:06:05;11.48;;;1.65;;
19782;SDS011;10051;40.294;-3.754;2022-11-22T07:08:32;6.22;;;1.80;;
19782;SDS011;10051;40.294;-3.754;2022-11-22T07:11:04;8.35;;;1.60;;
19782;SDS011;10051;40.294;-3.754;2022-11-22T07:13:31;4.65;;;1.42;;
19782;SDS011;10051;40.294;-3.754;2022-11-22T07:15:59;6.18;;;1.60;;
19782;SDS011;10051;40.294;-3.754;2022-11-22T07:18:26;4.65;;;1.55;;
19782;SDS011;10051;40.294;-3.754;2022-11-22T07:20:52;7.60;;;1.35;;
19782;SDS011;10051;40.294;-3.754;2022-11-22T07:23:23;8.68;;;1.50;;
19782;SDS011;10051;40.294;-3.754;2022-11-22T07:25:49;7.70;;;1.60;;
19782;SDS011;10051;40.294;-3.754;2022-11-22T07:28:15;8.85;;;1.45;;
19782;SDS011;10051;40.294;-3.754;2022-11-22T07:30:41;6.43;;;1.60;;
19782;SDS011;10051;40.294;-3.754;2022-11-22T07:33:07;6.13;;;1.70;;
19782;SDS011;10051;40.294;-3.754;2022-11-22T07:35:33;7.43;;;2.00;;
19782;SDS011;10051;40.294;-3.754;2022-11-22T07:37:59;6.95;;;2.15;;
19782;SDS011;10051;40.294;-3.754;2022-11-22T07:40:25;8.10;;;2.45;;
19782;SDS011;10051;40.294;-3.754;2022-11-22T07:42:51;9.60;;;2.20;;
19782;SDS011;10051;40.294;-3.754;2022-11-22T07:45:16;5.90;;;1.92;;
19782;SDS011;10051;40.294;-3.754;2022-11-22T07:47:42;6.63;;;1.60;;
19782;SDS011;10051;40.294;-3.754;2022-11-22T07:50:08;11.75;;;2.10;;
19782;SDS011;10051;40.294;-3.754;2022-11-22T07:52:34;9.10;;;1.95;;
19782;SDS011;10051;40.294;-3.754;2022-11-22T07:54:59;8.50;;;2.00;;
19782;SDS011;10051;40.294;-3.754;2022-11-22T07:57:25;10.30;;;1.85;;
19782;SDS011;10051;40.294;-3.754;2022-11-22T07:59:50;12.40;;;2.17;;
19782;SDS011;10051;40.294;-3.754;2022-11-22T08:02:16;12.85;;;1.83;;
19782;SDS011;10051;40.294;-3.754;2022-11-22T08:04:42;10.80;;;1.85;;
19782;SDS011;10051;40.294;-3.754;2022-11-22T08:07:07;9.30;;;1.63;;
19782;SDS011;10051;40.294;-3.754;2022-11-22T08:09:33;9.45;;;1.73;;
19782;SDS011;10051;40.294;-3.754;2022-11-22T08:11:59;6.05;;;1.55;;
19782;SDS011;10051;40.294;-3.754;2022-11-22T08:14:25;8.57;;;1.75;;
19782;SDS011;10051;40.294;-3.754;2022-11-22T08:16:51;7.28;;;1.90;;
19782;SDS011;10051;40.294;-3.754;2022-11-22T08:19:17;9.98;;;2.50;;
19782;SDS011;10051;40.294;-3.754;2022-11-22T08:21:45;6.10;;;1.98;;
19782;SDS011;10051;40.294;-3.754;2022-11-22T08:24:13;10.32;;;2.30;;
19782;SDS011;10051;40.294;-3.754;2022-11-22T08:26:39;12.00;;;2.13;;
19782;SDS011;10051;40.294;-3.754;2022-11-22T08:29:05;13.73;;;2.53;;
19782;SDS011;10051;40.294;-3.754;2022-11-22T08:31:32;9.30;;;1.88;;
19782;SDS011;10051;40.294;-3.754;2022-11-22T08:33:58;8.57;;;1.77;;
19782;SDS011;10051;40.294;-3.754;2022-11-22T08:36:24;12.75;;;2.08;;
19782;SDS011;10051;40.294;-3.754;2022-11-22T08:38:54;9.55;;;1.75;;
19782;SDS011;10051;40.294;-3.754;2022-11-22T08:41:20;9.45;;;1.90;;
19782;SDS011;10051;40.294;-3.754;2022-11-22T08:43:48;8.85;;;1.63;;
19782;SDS011;10051;40.294;-3.754;2022-11-22T08:46:15;12.90;;;2.05;;
19782;SDS011;10051;40.294;-3.754;2022-11-22T08:48:40;10.27;;;1.70;;
19782;SDS011;10051;40.294;-3.754;2022-11-22T08:51:07;8.83;;;1.80;;
19782;SDS011;10051;40.294;-3.754;2022-11-22T08:53:35;10.52;;;1.85;;
19782;SDS011;10051;40.294;-3.754;2022-11-22T08:56:03;5.70;;;1.60;;
19782;SDS011;10051;40.294;-3.754;2022-11-22T08:58:31;5.13;;;1.35;;
19782;SDS011;10051;40.294;-3.754;2022-11-22T09:01:07;7.63;;;1.85;;
19782;SDS011;10051;40.294;-3.754;2022-11-22T09:03:35;8.20;;;1.75;;
19782;SDS011;10051;40.294;-3.754;2022-11-22T09:06:05;8.52;;;1.52;;
19782;SDS011;10051;40.294;-3.754;2022-11-22T09:08:33;7.93;;;1.50;;
19782;SDS011;10051;40.294;-3.754;2022-11-22T09:11:00;9.15;;;1.40;;
19782;SDS011;10051;40.294;-3.754;2022-11-22T09:13:27;9.73;;;2.20;;
19782;SDS011;10051;40.294;-3.754;2022-11-22T09:15:53;7.38;;;1.50;;
19782;SDS011;10051;40.294;-3.754;2022-11-22T09:18:19;10.25;;;1.88;;
19782;SDS011;10051;40.294;-3.754;2022-11-22T09:20:44;8.32;;;2.30;;
19782;SDS011;10051;40.294;-3.754;2022-11-22T09:23:10;9.13;;;1.45;;
19782;SDS011;10051;40.294;-3.754;2022-11-22T09:25:36;8.05;;;1.70;;
19782;SDS011;10051;40.294;-3.754;2022-11-22T09:28:01;9.17;;;1.50;;
19782;SDS011;10051;40.294;-3.754;2022-11-22T09:30:27;6.90;;;1.53;;
19782;SDS011;10051;40.294;-3.754;2022-11-22T09:32:55;7.10;;;1.25;;
19782;SDS011;10051;40.294;-3.754;2022-11-22T09:35:21;8.15;;;1.48;;
19782;SDS011;10051;40.294;-3.754;2022-11-22T09:37:46;9.40;;;1.77;;
19782;SDS011;10051;40.294;-3.754;2022-11-22T09:40:12;10.77;;;1.60;;
19782;SDS011;10051;40.294;-3.754;2022-11-22T09:45:17;7.53;;;1.60;;
19782;SDS011;10051;40.294;-3.754;2022-11-22T09:51:01;9.23;;;1.50;;
19782;SDS011;10051;40.294;-3.754;2022-11-22T09:56:01;8.55;;;1.50;;
19782;SDS011;10051;40.294;-3.754;2022-11-22T09:58:34;6.55;;;1.45;;
19782;SDS011;10051;40.294;-3.754;2022-11-22T10:01:09;8.52;;;1.40;;
19782;SDS011;10051;40.294;-3.754;2022-11-22T10:03:48;11.68;;;1.50;;
19782;SDS011;10051;40.294;-3.754;2022-11-22T10:06:29;6.82;;;1.60;;
19782;SDS011;10051;40.294;-3.754;2022-11-22T10:20:08;10.02;;;1.90;;
19782;SDS011;10051;40.294;-3.754;2022-11-22T10:22:39;7.82;;;1.50;;
19782;SDS011;10051;40.294;-3.754;2022-11-22T10:25:20;8.10;;;1.52;;
19782;SDS011;10051;40.294;-3.754;2022-11-22T10:27:52;12.40;;;1.83;;
19782;SDS011;10051;40.294;-3.754;2022-11-22T10:30:22;7.20;;;1.50;;
19782;SDS011;10051;40.294;-3.754;2022-11-22T10:40:47;12.68;;;1.70;;
19782;SDS011;10051;40.294;-3.754;2022-11-22T10:43:30;14.05;;;1.60;;
19782;SDS011;10051;40.294;-3.754;2022-11-22T10:56:25;13.32;;;2.50;;
19782;SDS011;10051;40.294;-3.754;2022-11-22T11:04:17;10.27;;;1.80;;
19782;SDS011;10051;40.294;-3.754;2022-11-22T11:06:45;11.63;;;1.80;;
19782;SDS011;10051;40.294;-3.754;2022-11-22T11:09:20;9.18;;;1.48;;
19782;SDS011;10051;40.294;-3.754;2022-11-22T11:11:50;11.75;;;2.03;;
19782;SDS011;10051;40.294;-3.754;2022-11-22T11:14:30;11.25;;;1.80;;
19782;SDS011;10051;40.294;-3.754;2022-11-22T11:17:01;11.13;;;1.83;;
19782;SDS011;10051;40.294;-3.754;2022-11-22T11:19:28;11.07;;;2.10;;
19782;SDS011;10051;40.294;-3.754;2022-11-22T11:22:00;11.20;;;1.73;;
19782;SDS011;10051;40.294;-3.754;2022-11-22T11:24:33;13.07;;;2.50;;
19782;SDS011;10051;40.294;-3.754;2022-11-22T11:27:02;8.50;;;1.80;;
19782;SDS011;10051;40.294;-3.754;2022-11-22T11:32:10;11.80;;;2.15;;
19782;SDS011;10051;40.294;-3.754;2022-11-22T11:34:38;9.30;;;2.10;;
19782;SDS011;10051;40.294;-3.754;2022-11-22T11:37:17;9.02;;;1.85;;
19782;SDS011;10051;40.294;-3.754;2022-11-22T11:39:47;12.13;;;1.92;;
19782;SDS011;10051;40.294;-3.754;2022-11-22T11:42:20;15.82;;;2.33;;
19782;SDS011;10051;40.294;-3.754;2022-11-22T11:44:48;9.65;;;2.60;;
19782;SDS011;10051;40.294;-3.754;2022-11-22T11:47:33;14.02;;;2.60;;
19782;SDS011;10051;40.294;-3.754;2022-11-22T11:49:59;10.15;;;2.30;;
19782;SDS011;10051;40.294;-3.754;2022-11-22T11:52:24;16.10;;;2.45;;
19782;SDS011;10051;40.294;-3.754;2022-11-22T11:54:53;14.55;;;2.67;;
19782;SDS011;10051;40.294;-3.754;2022-11-22T11:57:32;10.25;;;2.17;;
19782;SDS011;10051;40.294;-3.754;2022-11-22T12:00:04;12.55;;;2.60;;
19782;SDS011;10051;40.294;-3.754;2022-11-22T12:09:58;13.07;;;2.63;;
19782;SDS011;10051;40.294;-3.754;2022-11-22T12:12:43;13.75;;;2.42;;
19782;SDS011;10051;40.294;-3.754;2022-11-22T12:15:17;11.27;;;2.30;;
19782;SDS011;10051;40.294;-3.754;2022-11-22T12:21:02;16.52;;;2.47;;
19782;SDS011;10051;40.294;-3.754;2022-11-22T12:26:19;14.40;;;2.92;;
19782;SDS011;10051;40.294;-3.754;2022-11-22T12:28:44;13.77;;;2.20;;
19782;SDS011;10051;40.294;-3.754;2022-11-22T12:31:22;13.23;;;2.22;;
19782;SDS011;10051;40.294;-3.754;2022-11-22T12:34:19;8.35;;;2.03;;
19782;SDS011;10051;40.294;-3.754;2022-11-22T12:37:04;13.80;;;2.10;;
19782;SDS011;10051;40.294;-3.754;2022-11-22T12:39:36;8.52;;;1.80;;
19782;SDS011;10051;40.294;-3.754;2022-11-22T12:42:03;13.32;;;2.15;;
19782;SDS011;10051;40.294;-3.754;2022-11-22T12:44:38;12.13;;;2.30;;
19782;SDS011;10051;40.294;-3.754;2022-11-22T12:47:11;9.90;;;1.90;;
19782;SDS011;10051;40.294;-3.754;2022-11-22T12:49:41;8.80;;;1.77;;
19782;SDS011;10051;40.294;-3.754;2022-11-22T12:55:07;15.73;;;2.00;;
19782;SDS011;10051;40.294;-3.754;2022-11-22T12:57:53;10.40;;;1.73;;
19782;SDS011;10051;40.294;-3.754;2022-11-22T13:00:25;12.35;;;1.80;;
19782;SDS011;10051;40.294;-3.754;2022-11-22T13:02:57;10.10;;;1.60;;
19782;SDS011;10051;40.294;-3.754;2022-11-22T13:05:42;10.98;;;1.70;;
19782;SDS011;10051;40.294;-3.754;2022-11-22T13:08:22;11.90;;;2.10;;
19782;SDS011;10051;40.294;-3.754;2022-11-22T13:10:56;14.30;;;2.05;;
19782;SDS011;10051;40.294;-3.754;2022-11-22T13:13:35;14.15;;;2.35;;
19782;SDS011;10051;40.294;-3.754;2022-11-22T13:16:05;11.10;;;2.33;;
19782;SDS011;10051;40.294;-3.754;2022-11-22T13:18:36;9.93;;;1.95;;
19782;SDS011;10051;40.294;-3.754;2022-11-22T13:21:09;12.65;;;2.35;;
19782;SDS011;10051;40.294;-3.754;2022-11-22T13:26:45;4.50;;;1.42;;
19782;SDS011;10051;40.294;-3.754;2022-11-22T13:29:24;10.38;;;1.90;;
19782;SDS011;10051;40.294;-3.754;2022-11-22T13:32:02;10.70;;;2.40;;
19782;SDS011;10051;40.294;-3.754;2022-11-22T13:34:28;11.68;;;1.85;;
19782;SDS011;10051;40.294;-3.754;2022-11-22T13:36:59;11.13;;;1.83;;
19782;SDS011;10051;40.294;-3.754;2022-11-22T13:39:37;6.90;;;1.60;;
19782;SDS011;10051;40.294;-3.754;2022-11-22T13:42:10;9.73;;;1.77;;
19782;SDS011;10051;40.294;-3.754;2022-11-22T13:49:47;6.50;;;1.50;;
19782;SDS011;10051;40.294;-3.754;2022-11-22T14:02:43;5.28;;;1.10;;
19782;SDS011;10051;40.294;-3.754;2022-11-22T14:05:19;2.17;;;1.00;;
19782;SDS011;10051;40.294;-3.754;2022-11-22T14:07:49;6.18;;;1.30;;
19782;SDS011;10051;40.294;-3.754;2022-11-22T14:18:47;5.80;;;1.50;;
19782;SDS011;10051;40.294;-3.754;2022-11-22T14:35:28;4.05;;;1.80;;
19782;SDS011;10051;40.294;-3.754;2022-11-22T14:37:57;5.35;;;2.40;;
19782;SDS011;10051;40.294;-3.754;2022-11-22T14:40:35;5.78;;;2.53;;
19782;SDS011;10051;40.294;-3.754;2022-11-22T14:43:48;5.78;;;1.83;;
19782;SDS011;10051;40.294;-3.754;2022-11-22T14:46:08;3.25;;;1.50;;
19782;SDS011;10051;40.294;-3.754;2022-11-22T14:51:29;3.53;;;1.30;;
19782;SDS011;10051;40.294;-3.754;2022-11-22T14:54:00;5.93;;;1.65;;
19782;SDS011;10051;40.294;-3.754;2022-11-22T14:56:41;9.77;;;2.03;;
19782;SDS011;10051;40.294;-3.754;2022-11-22T14:59:15;4.60;;;1.70;;
19782;SDS011;10051;40.294;-3.754;2022-11-22T15:10:04;3.80;;;1.55;;
19782;SDS011;10051;40.294;-3.754;2022-11-22T15:15:50;4.07;;;1.40;;
19782;SDS011;10051;40.294;-3.754;2022-11-22T15:20:47;9.88;;;1.65;;
19782;SDS011;10051;40.294;-3.754;2022-11-22T15:23:20;3.30;;;1.25;;
19782;SDS011;10051;40.294;-3.754;2022-11-22T15:25:48;4.05;;;1.35;;
19782;SDS011;10051;40.294;-3.754;2022-11-22T15:28:22;3.70;;;1.13;;
19782;SDS011;10051;40.294;-3.754;2022-11-22T15:30:49;2.33;;;0.90;;
19782;SDS011;10051;40.294;-3.754;2022-11-22T15:38:40;3.83;;;0.90;;
19782;SDS011;10051;40.294;-3.754;2022-11-22T15:41:18;1.77;;;0.73;;
19782;SDS011;10051;40.294;-3.754;2022-11-22T15:43:47;1.42;;;0.80;;
19782;SDS011;10051;40.294;-3.754;2022-11-22T15:46:17;2.67;;;0.88;;
19782;SDS011;10051;40.294;-3.754;2022-11-22T15:48:45;2.80;;;1.02;;
19782;SDS011;10051;40.294;-3.754;2022-11-22T15:53:42;2.60;;;1.02;;
19782;SDS011;10051;40.294;-3.754;2022-11-22T15:56:26;6.05;;;1.25;;
19782;SDS011;10051;40.294;-3.754;2022-11-22T15:58:56;3.50;;;1.00;;
19782;SDS011;10051;40.294;-3.754;2022-11-22T16:01:22;5.05;;;1.35;;
19782;SDS011;10051;40.294;-3.754;2022-11-22T16:03:57;4.93;;;1.23;;
19782;SDS011;10051;40.294;-3.754;2022-11-22T16:06:27;3.70;;;1.43;;
19782;SDS011;10051;40.294;-3.754;2022-11-22T16:08:59;6.85;;;1.40;;
19782;SDS011;10051;40.294;-3.754;2022-11-22T16:11:28;7.97;;;3.35;;
19782;SDS011;10051;40.294;-3.754;2022-11-22T16:13:56;5.00;;;1.83;;
19782;SDS011;10051;40.294;-3.754;2022-11-22T16:16:32;5.35;;;1.60;;
19782;SDS011;10051;40.294;-3.754;2022-11-22T16:19:20;5.32;;;1.73;;
19782;SDS011;10051;40.294;-3.754;2022-11-22T16:21:58;4.07;;;1.05;;
19782;SDS011;10051;40.294;-3.754;2022-11-22T16:24:26;2.50;;;1.20;;
19782;SDS011;10051;40.294;-3.754;2022-11-22T16:26:54;3.35;;;1.23;;
19782;SDS011;10051;40.294;-3.754;2022-11-22T16:29:36;3.42;;;0.90;;
19782;SDS011;10051;40.294;-3.754;2022-11-22T16:34:35;2.13;;;1.00;;
19782;SDS011;10051;40.294;-3.754;2022-11-22T16:37:01;3.67;;;1.52;;
19782;SDS011;10051;40.294;-3.754;2022-11-22T16:39:50;4.05;;;1.27;;
19782;SDS011;10051;40.294;-3.754;2022-11-22T16:42:16;2.72;;;1.10;;
19782;SDS011;10051;40.294;-3.754;2022-11-22T16:44:41;3.42;;;1.25;;
19782;SDS011;10051;40.294;-3.754;2022-11-22T16:47:09;2.22;;;1.10;;
19782;SDS011;10051;40.294;-3.754;2022-11-22T16:49:39;3.92;;;1.27;;
19782;SDS011;10051;40.294;-3.754;2022-11-22T16:52:07;1.77;;;1.00;;
19782;SDS011;10051;40.294;-3.754;2022-11-22T16:54:35;1.83;;;1.00;;
19782;SDS011;10051;40.294;-3.754;2022-11-22T16:57:01;2.70;;;1.10;;
19782;SDS011;10051;40.294;-3.754;2022-11-22T16:59:27;3.20;;;1.40;;
19782;SDS011;10051;40.294;-3.754;2022-11-22T17:01:53;3.08;;;1.20;;
19782;SDS011;10051;40.294;-3.754;2022-11-22T17:04:20;3.60;;;1.60;;
19782;SDS011;10051;40.294;-3.754;2022-11-22T17:06:47;5.50;;;2.20;;